createdAt,value
2022-10-04T00:02:29.604Z,9.90
2022-10-04T00:05:03.926Z,9.90
2022-10-04T00:07:35.444Z,10.00
2022-10-04T00:10:07.161Z,10.10
2022-10-04T00:12:39.623Z,10.20
2022-10-04T00:15:20.292Z,10.20
2022-10-04T00:18:02.496Z,10.30
2022-10-04T00:21:03.294Z,10.30
2022-10-04T00:23:46.565Z,10.30
2022-10-04T00:26:47.876Z,10.30
2022-10-04T00:29:32.573Z,10.40
2022-10-04T00:32:33.002Z,10.40
2022-10-04T00:35:01.267Z,10.50
2022-10-04T00:37:49.437Z,10.40
2022-10-04T00:40:20.877Z,10.40
2022-10-04T00:42:56.436Z,10.40
2022-10-04T00:45:35.027Z,10.40
2022-10-04T00:48:43.779Z,10.50
2022-10-04T00:51:19.390Z,10.50
2022-10-04T00:53:59.903Z,10.50
2022-10-04T00:56:33.949Z,10.30
2022-10-04T00:59:27.960Z,10.30
2022-10-04T01:02:00.246Z,10.30
2022-10-04T01:04:38.024Z,10.30
2022-10-04T01:07:07.561Z,10.20
2022-10-04T01:09:42.552Z,10.20
2022-10-04T01:12:18.589Z,10.10
2022-10-04T01:14:56.175Z,10.20
2022-10-04T01:17:24.230Z,10.10
2022-10-04T01:19:54.940Z,10.00
2022-10-04T01:22:36.419Z,10.00
2022-10-04T01:25:04.462Z,9.90
2022-10-04T01:27:35.510Z,10.00
2022-10-04T01:30:09.106Z,10.00
2022-10-04T01:32:39.082Z,9.90
2022-10-04T01:35:09.490Z,9.90
2022-10-04T01:37:39.592Z,9.80
2022-10-04T01:40:09.859Z,9.80
2022-10-04T01:42:44.594Z,9.70
2022-10-04T01:45:22.290Z,9.70
2022-10-04T01:47:54.526Z,9.70
2022-10-04T01:50:29.780Z,9.70
2022-10-04T01:53:03.694Z,9.60
2022-10-04T01:55:35.355Z,9.70
2022-10-04T01:58:10.455Z,9.60
2022-10-04T02:00:41.189Z,9.60
2022-10-04T02:03:15.740Z,9.50
2022-10-04T02:05:50.473Z,9.60
2022-10-04T02:08:26.477Z,9.50
2022-10-04T02:10:56.387Z,9.50
2022-10-04T02:13:29.970Z,9.50
2022-10-04T02:15:59.733Z,9.50
2022-10-04T02:18:28.886Z,9.50
2022-10-04T02:20:57.556Z,9.40
2022-10-04T02:23:27.927Z,9.40
2022-10-04T02:25:56.332Z,9.30
2022-10-04T02:28:24.371Z,9.30
2022-10-04T02:31:11.921Z,9.30
2022-10-04T02:33:42.341Z,9.40
2022-10-04T02:36:11.833Z,9.30
2022-10-04T02:38:45.440Z,9.30
2022-10-04T02:41:22.857Z,9.30
2022-10-04T02:43:56.623Z,9.30
2022-10-04T02:46:29.208Z,9.30
2022-10-04T02:49:00.498Z,9.30
2022-10-04T02:51:34.402Z,9.20
2022-10-04T02:54:11.535Z,9.30
2022-10-04T02:56:40.087Z,9.20
2022-10-04T02:59:08.869Z,9.30
2022-10-04T03:01:50.229Z,9.20
2022-10-04T03:04:21.139Z,9.10
2022-10-04T03:06:49.571Z,9.20
2022-10-04T03:09:20.694Z,9.20
2022-10-04T03:11:50.629Z,9.20
2022-10-04T03:14:22.316Z,9.10
2022-10-04T03:16:54.177Z,9.10
2022-10-04T03:19:25.317Z,9.10
2022-10-04T03:21:55.288Z,9.10
2022-10-04T03:24:29.922Z,9.00
2022-10-04T03:27:00.460Z,9.00
2022-10-04T03:29:30.455Z,9.10
2022-10-04T03:32:01.634Z,9.10
2022-10-04T03:34:34.971Z,9.00
2022-10-04T03:37:04.457Z,9.10
2022-10-04T03:39:35.573Z,9.00
2022-10-04T03:42:08.304Z,9.00
2022-10-04T03:44:37.163Z,9.00
2022-10-04T03:47:12.217Z,9.10
2022-10-04T03:49:42.365Z,9.00
2022-10-04T03:52:20.204Z,9.00
2022-10-04T03:54:52.421Z,9.10
2022-10-04T03:57:20.680Z,9.10
2022-10-04T03:59:49.188Z,9.20
2022-10-04T04:02:23.631Z,9.30
2022-10-04T04:05:01.084Z,9.20
2022-10-04T04:07:36.144Z,9.20
2022-10-04T04:10:16.750Z,9.10
2022-10-04T04:12:48.440Z,9.20
2022-10-04T04:15:17.023Z,9.10
2022-10-04T04:17:46.692Z,9.10
2022-10-04T04:20:20.983Z,9.10
2022-10-04T04:22:59.370Z,9.10
2022-10-04T04:25:32.365Z,9.10
2022-10-04T04:28:13.978Z,9.20
2022-10-04T04:30:47.883Z,9.10
2022-10-04T04:33:26.466Z,9.10
2022-10-04T04:36:03.840Z,9.10
2022-10-04T04:38:32.125Z,9.10
2022-10-04T04:41:09.870Z,9.20
2022-10-04T04:43:37.986Z,9.00
2022-10-04T04:46:28.114Z,9.00
2022-10-04T04:49:03.967Z,9.00
2022-10-04T04:51:34.035Z,8.90
2022-10-04T04:54:05.150Z,9.00
2022-10-04T04:56:35.952Z,9.00
2022-10-04T04:59:07.732Z,8.90
2022-10-04T05:01:42.861Z,8.90
2022-10-04T05:04:19.811Z,9.00
2022-10-04T05:06:49.846Z,8.90
2022-10-04T05:09:25.398Z,9.00
2022-10-04T05:11:58.398Z,8.90
2022-10-04T05:14:26.407Z,8.90
2022-10-04T05:16:56.091Z,8.90
2022-10-04T05:19:28.869Z,9.00
2022-10-04T05:21:59.214Z,9.00
2022-10-04T05:24:30.146Z,9.10
2022-10-04T05:27:02.608Z,9.10
2022-10-04T05:29:33.872Z,9.10
2022-10-04T05:32:13.596Z,9.10
2022-10-04T05:34:45.597Z,9.20
2022-10-04T05:37:29.891Z,9.20
2022-10-04T05:40:06.689Z,9.20
2022-10-04T05:42:45.090Z,9.20
2022-10-04T05:45:17.596Z,9.20
2022-10-04T05:47:47.612Z,9.30
2022-10-04T05:50:18.484Z,9.40
2022-10-04T05:52:49.990Z,9.50
2022-10-04T05:55:26.183Z,9.50
2022-10-04T05:58:32.330Z,9.60
2022-10-04T06:01:17.722Z,9.80
2022-10-04T06:04:10.500Z,9.80
2022-10-04T06:06:44.027Z,9.80
2022-10-04T06:09:21.107Z,10.00
2022-10-04T06:12:02.202Z,10.10
2022-10-04T06:14:46.296Z,10.30
2022-10-04T06:17:30.782Z,10.40
2022-10-04T06:20:38.313Z,10.60
2022-10-04T06:23:14.315Z,10.80
2022-10-04T06:25:47.094Z,10.90
2022-10-04T06:28:20.289Z,10.80
2022-10-04T06:31:11.147Z,10.90
2022-10-04T06:33:56.125Z,10.90
2022-10-04T06:36:44.401Z,10.80
2022-10-04T06:39:51.206Z,10.80
2022-10-04T06:42:34.565Z,10.80
2022-10-04T06:45:21.339Z,10.90
2022-10-04T06:48:12.917Z,11.00
2022-10-04T06:50:49.840Z,11.00
2022-10-04T06:53:31.437Z,11.10
2022-10-04T06:56:23.073Z,10.80
2022-10-04T06:59:04.242Z,10.80
2022-10-04T07:01:34.454Z,10.80
2022-10-04T07:04:14.023Z,10.90
2022-10-04T07:06:49.606Z,10.80
2022-10-04T07:09:24.207Z,11.00
2022-10-04T07:11:56.513Z,11.20
2022-10-04T07:14:31.072Z,11.30
2022-10-04T07:17:05.169Z,11.50
2022-10-04T07:19:39.581Z,11.70
2022-10-04T07:22:17.756Z,11.70
2022-10-04T07:24:57.138Z,11.90
2022-10-04T07:27:31.736Z,12.00
2022-10-04T07:30:02.115Z,12.20
2022-10-04T07:32:33.164Z,12.40
2022-10-04T07:35:06.525Z,12.50
2022-10-04T07:37:45.354Z,12.60
2022-10-04T07:40:23.772Z,12.40
2022-10-04T07:42:56.335Z,12.70
2022-10-04T07:45:30.167Z,12.90
2022-10-04T07:48:06.314Z,12.80
2022-10-04T07:50:42.715Z,13.10
2022-10-04T07:53:16.966Z,13.40
2022-10-04T07:55:54.914Z,13.70
2022-10-04T07:58:35.027Z,13.60
2022-10-04T08:01:08.620Z,13.80
2022-10-04T08:03:53.426Z,14.40
2022-10-04T08:06:31.636Z,14.80
2022-10-04T08:09:18.179Z,15.00
2022-10-04T08:11:55.165Z,15.00
2022-10-04T08:14:32.810Z,14.70
2022-10-04T08:17:15.802Z,14.40
2022-10-04T08:19:58.762Z,14.50
2022-10-04T08:22:43.436Z,14.30
2022-10-04T08:25:19.613Z,14.60
2022-10-04T08:28:14.013Z,14.70
2022-10-04T08:30:57.058Z,14.60
2022-10-04T08:33:38.246Z,14.60
2022-10-04T08:36:19.856Z,14.40
2022-10-04T08:38:54.609Z,14.60
2022-10-04T08:42:13.277Z,14.30
2022-10-04T08:45:08.911Z,14.30
2022-10-04T08:48:24.632Z,14.20
2022-10-04T08:51:42.001Z,14.00
2022-10-04T08:55:01.444Z,14.00
2022-10-04T08:57:57.165Z,14.00
2022-10-04T09:00:33.832Z,13.70
2022-10-04T09:03:34.642Z,13.60
2022-10-04T09:06:19.775Z,13.40
2022-10-04T09:09:46.500Z,13.60
2022-10-04T09:12:45.323Z,13.80
2022-10-04T09:15:38.744Z,14.20
2022-10-04T09:18:30.554Z,14.20
2022-10-04T09:21:03.765Z,14.50
2022-10-04T09:24:02.408Z,14.90
2022-10-04T09:26:41.543Z,15.00
2022-10-04T09:29:50.107Z,14.90
2022-10-04T09:32:46.273Z,15.10
2022-10-04T09:35:45.152Z,15.40
2022-10-04T09:38:46.097Z,15.40
2022-10-04T09:41:43.033Z,15.00
2022-10-04T09:44:47.393Z,15.00
2022-10-04T09:47:37.806Z,15.10
2022-10-04T09:50:53.888Z,15.20
2022-10-04T09:53:33.312Z,15.20
2022-10-04T09:56:34.359Z,15.50
2022-10-04T09:59:36.447Z,15.50
2022-10-04T10:02:35.198Z,15.50
2022-10-04T10:05:22.723Z,15.80
2022-10-04T10:08:00.928Z,15.80
2022-10-04T10:10:56.298Z,16.00
2022-10-04T10:13:43.131Z,15.90
2022-10-04T10:16:44.197Z,16.10
2022-10-04T10:19:44.000Z,16.30
2022-10-04T10:22:29.135Z,16.30
2022-10-04T10:25:19.179Z,15.90
2022-10-04T10:27:57.124Z,16.00
2022-10-04T10:30:31.182Z,15.90
2022-10-04T10:33:27.020Z,16.00
2022-10-04T10:36:21.929Z,15.90
2022-10-04T10:39:14.704Z,16.30
2022-10-04T10:42:12.234Z,16.70
2022-10-04T10:44:56.294Z,17.00
2022-10-04T10:47:37.723Z,17.20
2022-10-04T10:50:27.370Z,17.30
2022-10-04T10:53:48.507Z,17.30
2022-10-04T10:56:35.093Z,18.10
2022-10-04T10:59:32.102Z,18.40
2022-10-04T11:02:49.848Z,19.10
2022-10-04T11:06:19.590Z,20.10
2022-10-04T11:09:29.695Z,21.50
2022-10-04T11:12:34.100Z,21.10
2022-10-04T11:15:44.672Z,20.40
2022-10-04T11:18:52.053Z,19.70
2022-10-04T11:21:52.869Z,19.40
2022-10-04T11:24:53.693Z,18.80
2022-10-04T11:27:34.105Z,18.10
2022-10-04T11:30:15.158Z,17.90
2022-10-04T11:33:34.019Z,17.50
2022-10-04T11:36:38.099Z,17.40
2022-10-04T11:39:37.952Z,17.40
2022-10-04T11:42:22.619Z,17.50
2022-10-04T11:45:20.315Z,17.50
2022-10-04T11:48:02.500Z,17.10
2022-10-04T11:50:51.466Z,17.00
2022-10-04T11:53:53.329Z,16.90
2022-10-04T11:56:40.449Z,17.00
2022-10-04T11:59:39.484Z,17.00
2022-10-04T12:02:43.144Z,16.80
2022-10-04T12:05:34.578Z,16.80
2022-10-04T12:08:15.780Z,17.00
2022-10-04T12:10:49.583Z,17.10
2022-10-04T12:13:54.123Z,17.20
2022-10-04T12:16:44.511Z,17.20
2022-10-04T12:19:47.023Z,17.20
2022-10-04T12:22:35.438Z,17.30
2022-10-04T12:25:20.529Z,17.40
2022-10-04T12:28:12.472Z,17.40
2022-10-04T12:31:00.224Z,17.50
2022-10-04T12:33:36.437Z,17.40
2022-10-04T12:36:21.269Z,17.70
2022-10-04T12:39:03.079Z,17.50
2022-10-04T12:41:41.454Z,17.30
2022-10-04T12:44:22.007Z,17.20
2022-10-04T12:47:02.428Z,17.20
2022-10-04T12:49:46.744Z,17.20
2022-10-04T12:52:20.811Z,17.20
2022-10-04T12:54:54.131Z,17.40
2022-10-04T12:57:39.058Z,17.20
2022-10-04T13:00:17.091Z,17.10
2022-10-04T13:03:19.038Z,17.10
2022-10-04T13:06:03.079Z,17.00
2022-10-04T13:08:54.691Z,16.80
2022-10-04T13:11:42.705Z,16.70
2022-10-04T13:14:52.392Z,16.70
2022-10-04T13:17:35.964Z,16.80
2022-10-04T13:20:27.121Z,16.60
2022-10-04T13:23:03.462Z,16.80
2022-10-04T13:25:49.039Z,16.70
2022-10-04T13:28:26.686Z,16.60
2022-10-04T13:31:04.303Z,16.40
2022-10-04T13:33:43.524Z,16.50
2022-10-04T13:36:17.916Z,16.40
2022-10-04T13:39:09.648Z,16.50
2022-10-04T13:41:57.300Z,16.40
2022-10-04T13:44:54.954Z,16.20
2022-10-04T13:47:41.972Z,16.30
2022-10-04T13:50:39.299Z,16.40
2022-10-04T13:53:39.101Z,16.40
2022-10-04T13:56:40.326Z,16.50
2022-10-04T13:59:17.144Z,16.50
2022-10-04T14:02:26.908Z,16.50
2022-10-04T14:05:19.957Z,16.60
2022-10-04T14:08:13.708Z,16.60
2022-10-04T14:11:04.602Z,16.60
2022-10-04T14:14:08.803Z,16.50
2022-10-04T14:16:58.341Z,16.50
2022-10-04T14:19:57.996Z,16.60
2022-10-04T14:22:57.142Z,16.60
2022-10-04T14:25:58.634Z,16.70
2022-10-04T14:29:10.357Z,16.80
2022-10-04T14:31:58.928Z,16.90
2022-10-04T14:34:55.150Z,16.80
2022-10-04T14:37:57.179Z,16.80
2022-10-04T14:40:50.783Z,16.90
2022-10-04T14:44:09.084Z,16.90
2022-10-04T14:46:48.013Z,16.90
2022-10-04T14:49:27.883Z,17.00
2022-10-04T14:52:22.513Z,16.90
2022-10-04T14:54:55.010Z,16.90
2022-10-04T14:57:43.010Z,16.90
2022-10-04T15:00:21.982Z,16.90
2022-10-04T15:03:18.863Z,16.90
2022-10-04T15:06:06.666Z,16.90
2022-10-04T15:09:11.905Z,16.80
2022-10-04T15:11:57.503Z,16.80
2022-10-04T15:14:40.076Z,16.90
2022-10-04T15:17:27.379Z,16.90
2022-10-04T15:20:06.291Z,16.90
2022-10-04T15:22:41.930Z,16.90
2022-10-04T15:25:41.887Z,16.90
2022-10-04T15:28:29.671Z,16.90
2022-10-04T15:31:02.877Z,16.80
2022-10-04T15:33:42.040Z,16.80
2022-10-04T15:36:48.641Z,16.80
2022-10-04T15:39:41.180Z,16.90
2022-10-04T15:42:15.869Z,16.80
2022-10-04T15:45:21.830Z,16.80
2022-10-04T15:48:12.682Z,16.80
2022-10-04T15:51:00.350Z,16.90
2022-10-04T15:53:55.012Z,16.90
2022-10-04T15:56:33.342Z,16.70
2022-10-04T15:59:26.968Z,16.60
2022-10-04T16:02:19.673Z,16.60
2022-10-04T16:05:00.460Z,16.50
2022-10-04T16:08:01.486Z,16.40
2022-10-04T16:10:53.190Z,16.40
2022-10-04T16:13:36.498Z,16.40
2022-10-04T16:16:45.910Z,16.50
2022-10-04T16:19:24.131Z,16.40
2022-10-04T16:21:55.187Z,16.40
2022-10-04T16:24:45.595Z,16.40
2022-10-04T16:27:46.449Z,16.40
2022-10-04T16:30:27.253Z,16.30
2022-10-04T16:33:20.812Z,16.10
2022-10-04T16:36:03.041Z,16.00
2022-10-04T16:38:35.699Z,16.00
2022-10-04T16:41:14.466Z,15.70
2022-10-04T16:43:55.048Z,15.70
2022-10-04T16:46:31.204Z,15.60
2022-10-04T16:49:01.592Z,15.50
2022-10-04T16:52:03.926Z,15.50
2022-10-04T16:54:52.645Z,15.30
2022-10-04T16:57:27.569Z,15.30
2022-10-04T16:59:58.872Z,15.40
2022-10-04T17:03:00.396Z,15.30
2022-10-04T17:05:55.515Z,15.30
2022-10-04T17:08:27.553Z,15.40
2022-10-04T17:11:37.553Z,15.40
2022-10-04T17:14:32.269Z,15.40
2022-10-04T17:17:05.409Z,15.20
2022-10-04T17:19:42.429Z,15.10
2022-10-04T17:22:20.479Z,15.10
2022-10-04T17:25:00.092Z,15.10
2022-10-04T17:27:45.288Z,15.10
2022-10-04T17:30:21.466Z,15.20
2022-10-04T17:33:32.550Z,15.20
2022-10-04T17:36:18.721Z,15.00
2022-10-04T17:38:59.701Z,14.90
2022-10-04T17:41:40.908Z,15.10
2022-10-04T17:44:28.555Z,15.10
2022-10-04T17:47:02.779Z,15.10
2022-10-04T17:49:56.407Z,15.10
2022-10-04T17:52:48.107Z,15.00
2022-10-04T17:55:22.672Z,15.00
2022-10-04T17:57:53.826Z,15.00
2022-10-04T18:00:24.027Z,14.90
2022-10-04T18:03:09.126Z,14.80
2022-10-04T18:05:48.252Z,14.90
2022-10-04T18:08:24.807Z,15.00
2022-10-04T18:10:55.549Z,14.80
2022-10-04T18:13:30.604Z,15.00
2022-10-04T18:16:04.862Z,14.90
2022-10-04T18:18:40.382Z,15.00
2022-10-04T18:21:27.532Z,15.00
2022-10-04T18:24:00.237Z,14.80
2022-10-04T18:26:31.150Z,14.70
2022-10-04T18:29:01.476Z,14.70
2022-10-04T18:31:36.933Z,14.70
2022-10-04T18:34:19.069Z,14.60
2022-10-04T18:37:05.428Z,14.60
2022-10-04T18:39:46.544Z,14.50
2022-10-04T18:42:23.364Z,14.50
2022-10-04T18:44:59.373Z,14.60
2022-10-04T18:47:34.374Z,14.60
2022-10-04T18:50:04.243Z,14.40
2022-10-04T18:52:43.728Z,14.40
2022-10-04T18:55:27.872Z,14.40
2022-10-04T18:58:20.975Z,14.30
2022-10-04T19:01:15.417Z,14.30
2022-10-04T19:03:51.451Z,14.40
2022-10-04T19:06:27.528Z,14.20
2022-10-04T19:09:05.068Z,14.30
2022-10-04T19:11:41.035Z,14.10
2022-10-04T19:14:25.835Z,14.20
2022-10-04T19:16:59.872Z,14.30
2022-10-04T19:19:43.230Z,14.30
2022-10-04T19:22:28.132Z,14.30
2022-10-04T19:25:21.552Z,14.20
2022-10-04T19:27:58.251Z,14.10
2022-10-04T19:30:43.252Z,14.10
2022-10-04T19:33:18.548Z,14.10
2022-10-04T19:36:18.382Z,14.10
2022-10-04T19:39:00.840Z,14.10
2022-10-04T19:41:48.927Z,14.00
2022-10-04T19:44:43.621Z,14.00
2022-10-04T19:47:28.265Z,13.90
2022-10-04T19:50:02.966Z,13.90
2022-10-04T19:52:37.442Z,13.80
2022-10-04T19:55:17.573Z,13.70
2022-10-04T19:57:50.919Z,13.50
2022-10-04T20:00:22.297Z,13.60
2022-10-04T20:02:50.552Z,13.60
2022-10-04T20:05:24.892Z,13.60
2022-10-04T20:08:01.583Z,13.60
2022-10-04T20:10:33.465Z,13.50
2022-10-04T20:13:21.483Z,13.50
2022-10-04T20:16:00.727Z,13.40
2022-10-04T20:19:09.605Z,13.50
2022-10-04T20:21:37.656Z,13.40
2022-10-04T20:24:06.292Z,13.40
2022-10-04T20:26:56.388Z,13.40
2022-10-04T20:30:02.953Z,13.30
2022-10-04T20:32:59.970Z,13.30
2022-10-04T20:36:04.768Z,13.20
2022-10-04T20:39:02.332Z,13.20
2022-10-04T20:42:22.581Z,13.20
2022-10-04T20:44:55.588Z,13.00
2022-10-04T20:47:38.165Z,13.00
2022-10-04T20:50:15.854Z,13.10
2022-10-04T20:52:48.208Z,13.10
2022-10-04T20:55:25.292Z,13.00
2022-10-04T20:57:53.186Z,13.00
2022-10-04T21:00:23.652Z,13.00
2022-10-04T21:02:51.671Z,13.00
2022-10-04T21:05:25.289Z,13.10
2022-10-04T21:08:15.162Z,13.00
2022-10-04T21:11:05.291Z,13.00
2022-10-04T21:13:55.926Z,13.00
2022-10-04T21:16:45.054Z,12.90
2022-10-04T21:19:50.257Z,12.90
2022-10-04T21:22:41.493Z,12.90
2022-10-04T21:25:30.947Z,12.90
2022-10-04T21:28:34.094Z,12.80
2022-10-04T21:31:03.143Z,12.80
2022-10-04T21:33:35.806Z,12.80
2022-10-04T21:36:04.729Z,12.80
2022-10-04T21:38:33.954Z,12.80
2022-10-04T21:41:02.080Z,12.90
2022-10-04T21:43:30.113Z,12.90
2022-10-04T21:45:58.104Z,12.80
2022-10-04T21:48:27.529Z,12.80
2022-10-04T21:50:56.224Z,12.70
2022-10-04T21:53:24.357Z,12.70
2022-10-04T21:55:53.783Z,12.60
2022-10-04T21:58:21.654Z,12.60
2022-10-04T22:00:50.204Z,12.70
2022-10-04T22:03:18.202Z,12.70
2022-10-04T22:05:46.221Z,12.60
2022-10-04T22:08:14.160Z,12.70
2022-10-04T22:10:43.172Z,12.60
2022-10-04T22:13:12.535Z,12.60
2022-10-04T22:15:40.456Z,12.60
2022-10-04T22:18:08.392Z,12.50
2022-10-04T22:20:37.725Z,12.50
2022-10-04T22:23:11.214Z,12.40
2022-10-04T22:25:41.720Z,12.40
2022-10-04T22:28:19.327Z,12.40
2022-10-04T22:30:47.362Z,12.50
2022-10-04T22:33:28.903Z,12.40
2022-10-04T22:35:59.175Z,12.30
2022-10-04T22:38:27.143Z,12.20
2022-10-04T22:40:55.139Z,12.20
2022-10-04T22:43:24.496Z,12.20
2022-10-04T22:45:53.563Z,12.30
2022-10-04T22:48:21.768Z,12.30
2022-10-04T22:50:51.213Z,12.30
2022-10-04T22:53:22.052Z,12.20
2022-10-04T22:55:50.898Z,12.20
2022-10-04T22:58:20.928Z,12.20
2022-10-04T23:00:51.060Z,12.10
2022-10-04T23:03:27.817Z,12.20
2022-10-04T23:05:55.828Z,12.10
2022-10-04T23:08:23.775Z,12.10
2022-10-04T23:10:55.619Z,12.20
2022-10-04T23:13:24.855Z,12.20
2022-10-04T23:15:59.421Z,12.10
2022-10-04T23:18:29.620Z,12.10
2022-10-04T23:21:00.528Z,12.00
2022-10-04T23:23:29.274Z,12.10
2022-10-04T23:25:57.641Z,12.00
2022-10-04T23:28:25.918Z,12.10
2022-10-04T23:31:03.768Z,12.00
2022-10-04T23:33:31.961Z,11.90
2022-10-04T23:35:59.889Z,11.90
2022-10-04T23:38:29.209Z,12.00
2022-10-04T23:40:57.362Z,12.00
2022-10-04T23:43:26.952Z,11.90
2022-10-04T23:45:56.820Z,11.90
2022-10-04T23:48:28.090Z,11.80
2022-10-04T23:50:59.847Z,11.80
2022-10-04T23:53:30.076Z,11.80
2022-10-04T23:56:03.639Z,11.80
2022-10-04T23:58:35.230Z,11.90
